createdAt,value
2023-02-12T00:01:17.627Z,19.75
2023-02-12T00:03:44.314Z,19.13
2023-02-12T00:06:13.565Z,24.02
2023-02-12T00:08:42.552Z,23.60
2023-02-12T00:11:15.548Z,18.15
2023-02-12T00:13:42.442Z,18.50
2023-02-12T00:16:11.822Z,17.20
2023-02-12T00:18:38.552Z,16.88
2023-02-12T00:21:05.781Z,16.55
2023-02-12T00:23:32.873Z,16.63
2023-02-12T00:25:59.488Z,15.55
2023-02-12T00:28:26.877Z,17.13
2023-02-12T00:30:53.599Z,20.23
2023-02-12T00:33:20.234Z,23.33
2023-02-12T00:35:58.012Z,20.88
2023-02-12T00:38:24.669Z,17.52
2023-02-12T00:40:51.316Z,16.50
2023-02-12T00:43:17.987Z,17.38
2023-02-12T00:45:45.798Z,16.85
2023-02-12T00:48:13.055Z,17.65
2023-02-12T00:50:41.119Z,17.65
2023-02-12T00:53:08.160Z,17.80
2023-02-12T00:55:35.069Z,21.50
2023-02-12T00:58:01.675Z,22.17
2023-02-12T01:00:28.402Z,24.42
2023-02-12T01:02:55.136Z,24.08
2023-02-12T01:05:21.872Z,24.95
2023-02-12T01:07:53.372Z,23.67
2023-02-12T01:10:20.748Z,18.98
2023-02-12T01:12:48.078Z,20.73
2023-02-12T01:15:15.851Z,17.77
2023-02-12T01:17:42.817Z,19.65
2023-02-12T01:20:13.179Z,24.85
2023-02-12T01:22:40.101Z,23.45
2023-02-12T01:25:07.394Z,22.20
2023-02-12T01:27:34.058Z,22.40
2023-02-12T01:30:00.684Z,24.00
2023-02-12T01:32:27.342Z,19.75
2023-02-12T01:34:54.126Z,20.17
2023-02-12T01:37:20.723Z,19.65
2023-02-12T01:39:47.330Z,23.25
2023-02-12T01:42:15.285Z,20.42
2023-02-12T01:45:05.695Z,21.45
2023-02-12T01:47:32.329Z,20.83
2023-02-12T01:49:58.970Z,22.05
2023-02-12T01:52:32.539Z,19.10
2023-02-12T01:55:02.471Z,18.67
2023-02-12T01:57:32.000Z,19.58
2023-02-12T02:00:01.614Z,19.10
2023-02-12T02:02:28.805Z,22.70
2023-02-12T02:05:00.344Z,19.63
2023-02-12T02:07:27.225Z,17.65
2023-02-12T02:09:54.412Z,18.73
2023-02-12T02:12:39.921Z,14.13
2023-02-12T02:15:07.165Z,16.65
2023-02-12T02:17:57.963Z,16.75
2023-02-12T02:20:49.477Z,16.98
2023-02-12T02:23:25.137Z,17.08
2023-02-12T02:26:29.629Z,17.15
2023-02-12T02:29:34.614Z,16.55
2023-02-12T02:32:01.226Z,23.00
2023-02-12T02:34:44.732Z,21.65
2023-02-12T02:37:27.964Z,22.65
2023-02-12T02:39:57.328Z,18.55
2023-02-12T02:42:35.186Z,17.00
2023-02-12T02:45:27.149Z,18.95
2023-02-12T02:48:14.082Z,17.27
2023-02-12T02:50:46.060Z,21.17
2023-02-12T02:53:23.218Z,18.13
2023-02-12T02:55:55.052Z,16.90
2023-02-12T02:58:30.865Z,15.30
2023-02-12T03:01:19.026Z,17.55
2023-02-12T03:03:58.009Z,15.75
2023-02-12T03:06:50.632Z,17.50
2023-02-12T03:09:28.926Z,16.67
2023-02-12T03:11:59.798Z,17.92
2023-02-12T03:14:34.592Z,17.17
2023-02-12T03:17:13.950Z,19.25
2023-02-12T03:19:47.749Z,21.20
2023-02-12T03:22:26.925Z,21.83
2023-02-12T03:25:09.686Z,16.15
2023-02-12T03:28:06.378Z,16.05
2023-02-12T03:30:59.208Z,17.58
2023-02-12T03:33:55.138Z,15.23
2023-02-12T03:36:27.705Z,18.45
2023-02-12T03:38:56.513Z,15.10
2023-02-12T03:41:35.627Z,16.02
2023-02-12T03:44:14.216Z,16.38
2023-02-12T03:46:43.709Z,16.40
2023-02-12T03:49:23.579Z,14.73
2023-02-12T03:51:50.903Z,16.42
2023-02-12T03:54:21.042Z,21.23
2023-02-12T03:56:53.116Z,20.98
2023-02-12T03:59:21.943Z,17.65
2023-02-12T04:01:51.644Z,17.15
2023-02-12T04:04:18.655Z,15.40
2023-02-12T04:06:48.426Z,15.73
2023-02-12T04:09:15.978Z,14.23
2023-02-12T04:11:58.252Z,15.73
2023-02-12T04:14:55.406Z,15.38
2023-02-12T04:17:52.799Z,19.30
2023-02-12T04:20:28.505Z,16.20
2023-02-12T04:23:19.955Z,15.85
2023-02-12T04:26:11.304Z,19.73
2023-02-12T04:28:41.006Z,17.77
2023-02-12T04:31:14.433Z,19.67
2023-02-12T04:33:51.060Z,15.52
2023-02-12T04:36:23.138Z,16.90
2023-02-12T04:39:12.115Z,20.52
2023-02-12T04:41:39.587Z,13.65
2023-02-12T04:44:28.982Z,14.98
2023-02-12T04:46:55.563Z,21.35
2023-02-12T04:49:22.789Z,17.40
2023-02-12T04:51:49.508Z,16.02
2023-02-12T04:54:17.970Z,16.90
2023-02-12T04:56:45.666Z,15.13
2023-02-12T04:59:12.845Z,16.13
2023-02-12T05:01:40.781Z,16.42
2023-02-12T05:04:08.753Z,15.40
2023-02-12T05:06:36.832Z,15.43
2023-02-12T05:09:04.643Z,15.50
2023-02-12T05:11:31.269Z,16.13
2023-02-12T05:13:58.052Z,23.38
2023-02-12T05:16:24.741Z,18.08
2023-02-12T05:18:51.477Z,15.23
2023-02-12T05:21:18.095Z,17.35
2023-02-12T05:23:44.833Z,19.35
2023-02-12T05:26:14.977Z,19.60
2023-02-12T05:28:41.946Z,17.80
2023-02-12T05:31:12.838Z,17.58
2023-02-12T05:33:41.569Z,18.88
2023-02-12T05:36:11.718Z,22.65
2023-02-12T05:38:38.383Z,20.52
2023-02-12T05:41:11.230Z,20.48
2023-02-12T05:43:37.925Z,25.48
2023-02-12T05:46:06.702Z,23.35
2023-02-12T05:48:34.082Z,23.88
2023-02-12T05:51:09.292Z,25.02
2023-02-12T05:53:36.563Z,24.20
2023-02-12T05:56:17.244Z,23.73
2023-02-12T05:58:46.767Z,23.17
2023-02-12T06:01:16.942Z,21.75
2023-02-12T06:03:43.928Z,21.52
2023-02-12T06:06:11.119Z,16.95
2023-02-12T06:08:38.623Z,10.27
2023-02-12T06:11:07.765Z,15.52
2023-02-12T06:13:35.058Z,14.10
2023-02-12T06:16:02.268Z,14.68
2023-02-12T06:18:29.148Z,14.80
2023-02-12T06:20:55.882Z,17.10
2023-02-12T06:23:24.131Z,17.75
2023-02-12T06:25:56.149Z,19.08
2023-02-12T06:28:23.111Z,15.80
2023-02-12T06:30:49.716Z,15.27
2023-02-12T06:33:16.540Z,16.50
2023-02-12T06:35:43.161Z,16.63
2023-02-12T06:38:09.862Z,15.80
2023-02-12T06:40:36.521Z,15.43
2023-02-12T06:43:03.137Z,16.85
2023-02-12T06:45:29.742Z,17.02
2023-02-12T06:47:56.366Z,13.40
2023-02-12T06:50:22.969Z,14.48
2023-02-12T06:52:49.630Z,16.08
2023-02-12T06:55:16.550Z,15.57
2023-02-12T06:57:43.320Z,17.48
2023-02-12T07:00:11.016Z,15.07
2023-02-12T07:02:39.089Z,22.58
2023-02-12T07:05:06.102Z,16.88
2023-02-12T07:07:32.936Z,16.90
2023-02-12T07:09:59.603Z,15.65
2023-02-12T07:12:26.156Z,15.10
2023-02-12T07:14:52.756Z,19.13
2023-02-12T07:17:19.359Z,18.98
2023-02-12T07:19:45.925Z,18.08
2023-02-12T07:22:12.529Z,20.30
2023-02-12T07:24:39.212Z,18.00
2023-02-12T07:27:05.810Z,15.88
2023-02-12T07:29:32.456Z,14.38
2023-02-12T07:31:59.200Z,15.85
2023-02-12T07:34:25.869Z,15.48
2023-02-12T07:36:52.449Z,15.38
2023-02-12T07:39:19.016Z,16.83
2023-02-12T07:41:45.587Z,15.27
2023-02-12T07:44:13.113Z,15.60
2023-02-12T07:46:44.959Z,17.33
2023-02-12T07:49:15.125Z,15.60
2023-02-12T07:51:42.138Z,17.15
2023-02-12T07:54:10.321Z,17.35
2023-02-12T07:56:38.929Z,14.75
2023-02-12T07:59:10.368Z,14.13
2023-02-12T08:01:43.595Z,15.48
2023-02-12T08:04:13.346Z,15.13
2023-02-12T08:06:43.348Z,16.00
2023-02-12T08:09:12.136Z,16.00
2023-02-12T08:11:39.885Z,12.00
2023-02-12T08:14:06.925Z,15.50
2023-02-12T08:16:38.428Z,18.60
2023-02-12T08:19:16.880Z,18.75
2023-02-12T08:21:47.173Z,17.40
2023-02-12T08:24:13.815Z,16.02
2023-02-12T08:26:40.467Z,13.13
2023-02-12T08:29:13.218Z,13.48
2023-02-12T08:31:42.579Z,15.50
2023-02-12T08:34:32.480Z,14.90
2023-02-12T08:37:00.271Z,15.32
2023-02-12T08:39:28.546Z,14.77
2023-02-12T08:41:59.503Z,13.93
2023-02-12T08:44:26.739Z,14.82
2023-02-12T08:46:55.499Z,12.68
2023-02-12T08:49:25.161Z,15.45
2023-02-12T08:51:53.955Z,16.60
2023-02-12T08:54:28.763Z,16.02
2023-02-12T08:57:00.998Z,15.75
2023-02-12T08:59:28.071Z,15.18
2023-02-12T09:01:55.329Z,14.77
2023-02-12T09:04:27.773Z,13.55
2023-02-12T09:06:55.535Z,15.60
2023-02-12T09:09:22.298Z,16.15
2023-02-12T09:11:49.413Z,16.50
2023-02-12T09:14:17.463Z,15.65
2023-02-12T09:16:44.225Z,11.63
2023-02-12T09:19:13.450Z,16.08
2023-02-12T09:21:40.321Z,13.77
2023-02-12T09:24:07.383Z,16.00
2023-02-12T09:26:34.097Z,12.27
2023-02-12T09:29:02.835Z,14.88
2023-02-12T09:31:31.136Z,15.07
2023-02-12T09:34:03.516Z,12.77
2023-02-12T09:36:30.764Z,16.73
2023-02-12T09:38:59.195Z,13.35
2023-02-12T09:41:46.151Z,16.73
2023-02-12T09:44:58.232Z,17.15
2023-02-12T09:47:40.825Z,15.38
2023-02-12T09:50:33.628Z,16.42
2023-02-12T09:53:01.165Z,16.65
2023-02-12T09:55:31.066Z,16.88
2023-02-12T09:57:58.063Z,18.80
2023-02-12T10:00:31.074Z,18.00
2023-02-12T10:03:05.010Z,14.40
2023-02-12T10:05:37.717Z,16.02
2023-02-12T10:08:30.274Z,16.70
2023-02-12T10:11:21.910Z,18.15
2023-02-12T10:14:03.768Z,15.48
2023-02-12T10:16:55.306Z,15.55
2023-02-12T10:19:49.034Z,13.73
2023-02-12T10:26:12.635Z,15.73
2023-02-12T10:28:42.254Z,14.27
2023-02-12T10:31:30.519Z,14.80
2023-02-12T10:33:57.724Z,14.05
2023-02-12T10:36:43.817Z,15.82
2023-02-12T10:39:10.368Z,16.40
2023-02-12T10:41:42.918Z,15.88
2023-02-12T10:44:12.410Z,20.42
2023-02-12T10:46:39.104Z,17.88
2023-02-12T10:49:08.574Z,15.68
2023-02-12T10:51:50.501Z,16.02
2023-02-12T10:54:44.250Z,16.48
2023-02-12T10:57:13.120Z,16.23
2023-02-12T10:59:41.047Z,16.85
2023-02-12T11:02:21.993Z,15.23
2023-02-12T11:04:49.254Z,18.50
2023-02-12T11:07:16.378Z,17.65
2023-02-12T11:09:45.860Z,17.92
2023-02-12T11:12:30.169Z,16.88
2023-02-12T11:15:03.704Z,16.75
2023-02-12T11:17:39.848Z,15.80
2023-02-12T11:20:18.698Z,15.77
2023-02-12T11:22:56.145Z,12.32
2023-02-12T11:25:24.898Z,13.75
2023-02-12T11:28:00.500Z,14.50
2023-02-12T11:30:27.706Z,17.40
2023-02-12T11:32:54.317Z,16.48
2023-02-12T11:35:25.810Z,15.18
2023-02-12T11:37:55.933Z,15.02
2023-02-12T11:40:27.458Z,19.05
2023-02-12T11:43:06.377Z,17.30
2023-02-12T11:45:44.727Z,16.55
2023-02-12T11:48:23.810Z,15.95
2023-02-12T11:50:54.159Z,13.90
2023-02-12T11:53:28.150Z,17.70
2023-02-12T11:56:04.944Z,17.83
2023-02-12T11:58:31.920Z,15.63
2023-02-12T12:01:04.082Z,10.38
2023-02-12T12:03:40.389Z,13.25
2023-02-12T12:06:31.179Z,11.27
2023-02-12T12:09:13.278Z,10.15
2023-02-12T12:11:58.403Z,9.82
2023-02-12T12:14:55.678Z,12.05
2023-02-12T12:17:46.858Z,12.18
2023-02-12T12:20:19.491Z,7.35
2023-02-12T12:23:05.471Z,13.85
2023-02-12T12:25:44.320Z,9.88
2023-02-12T12:28:33.552Z,11.75
2023-02-12T12:31:11.404Z,12.43
2023-02-12T12:33:46.828Z,11.00
2023-02-12T12:36:13.408Z,10.98
2023-02-12T12:39:11.107Z,9.30
2023-02-12T12:42:07.935Z,11.57
2023-02-12T12:45:14.065Z,12.15
2023-02-12T12:48:01.684Z,13.38
2023-02-12T12:50:49.469Z,5.50
2023-02-12T12:53:37.875Z,12.45
2023-02-12T12:56:32.327Z,13.15
2023-02-12T12:59:19.246Z,8.30
2023-02-12T13:01:54.618Z,5.72
2023-02-12T13:04:31.678Z,5.88
2023-02-12T13:07:13.791Z,11.77
2023-02-12T13:10:03.126Z,11.90
2023-02-12T13:12:51.531Z,11.82
2023-02-12T13:15:39.327Z,11.77
2023-02-12T13:18:31.724Z,8.20
2023-02-12T13:21:09.998Z,12.18
2023-02-12T13:23:55.894Z,5.47
2023-02-12T13:26:52.745Z,9.40
2023-02-12T13:29:34.191Z,9.77
2023-02-12T13:32:12.039Z,11.80
2023-02-12T13:34:40.786Z,7.88
2023-02-12T13:37:15.178Z,12.40
2023-02-12T13:39:45.884Z,9.50
2023-02-12T13:42:37.412Z,12.00
2023-02-12T13:45:18.030Z,11.88
2023-02-12T13:47:50.339Z,5.25
2023-02-12T13:50:38.084Z,12.48
2023-02-12T13:53:25.317Z,7.72
2023-02-12T13:56:11.082Z,7.03
2023-02-12T13:58:37.655Z,13.30
2023-02-12T14:01:08.555Z,10.65
2023-02-12T14:03:36.742Z,13.35
2023-02-12T14:06:19.064Z,6.22
2023-02-12T14:08:50.521Z,5.72
2023-02-12T14:11:24.672Z,10.85
2023-02-12T14:13:53.993Z,11.90
2023-02-12T14:16:38.647Z,12.02
2023-02-12T14:19:37.697Z,9.27
2023-02-12T14:22:11.915Z,5.65
2023-02-12T14:24:38.540Z,8.93
2023-02-12T14:27:23.635Z,9.65
2023-02-12T14:30:05.361Z,12.57
2023-02-12T14:32:50.596Z,7.97
2023-02-12T14:35:26.456Z,5.70
2023-02-12T14:38:04.382Z,7.88
2023-02-12T14:40:46.733Z,6.75
2023-02-12T14:43:33.611Z,10.23
2023-02-12T14:46:22.169Z,13.43
2023-02-12T14:48:53.800Z,5.70
2023-02-12T14:51:42.966Z,5.63
2023-02-12T14:54:35.431Z,10.18
2023-02-12T14:57:08.549Z,5.28
2023-02-12T14:59:40.343Z,7.75
2023-02-12T15:02:13.927Z,11.85
2023-02-12T15:04:45.023Z,9.40
2023-02-12T15:07:20.380Z,6.63
2023-02-12T15:10:10.087Z,12.32
2023-02-12T15:12:46.403Z,7.35
2023-02-12T15:15:25.205Z,10.48
2023-02-12T15:17:59.235Z,13.38
2023-02-12T15:20:56.031Z,13.23
2023-02-12T15:23:36.112Z,12.57
2023-02-12T15:26:06.052Z,8.02
2023-02-12T15:28:36.247Z,8.15
2023-02-12T15:31:06.053Z,10.90
2023-02-12T15:33:35.873Z,12.40
2023-02-12T15:36:03.896Z,8.02
2023-02-12T15:38:34.233Z,14.07
2023-02-12T15:41:02.494Z,17.75
2023-02-12T15:43:34.853Z,16.08
2023-02-12T15:46:03.770Z,14.70
2023-02-12T15:48:33.721Z,12.75
2023-02-12T15:51:24.932Z,8.52
2023-02-12T15:53:52.558Z,8.88
2023-02-12T15:56:22.806Z,11.95
2023-02-12T15:58:52.839Z,11.60
2023-02-12T16:01:24.731Z,11.18
2023-02-12T16:04:03.147Z,11.13
2023-02-12T16:06:34.320Z,10.27
2023-02-12T16:09:07.063Z,10.65
2023-02-12T16:11:35.394Z,11.32
2023-02-12T16:14:05.636Z,11.15
2023-02-12T16:16:45.103Z,11.32
2023-02-12T16:19:33.473Z,12.38
2023-02-12T16:22:15.940Z,13.88
2023-02-12T16:24:48.851Z,13.07
2023-02-12T16:27:15.389Z,14.63
2023-02-12T16:29:48.237Z,15.05
2023-02-12T16:32:34.854Z,14.98
2023-02-12T16:35:27.331Z,14.25
2023-02-12T16:38:24.278Z,13.57
2023-02-12T16:41:26.841Z,14.02
2023-02-12T16:44:02.472Z,15.23
2023-02-12T16:46:31.005Z,14.43
2023-02-12T16:49:00.503Z,14.07
2023-02-12T16:51:28.429Z,14.38
2023-02-12T16:53:57.545Z,16.13
2023-02-12T16:56:27.886Z,14.23
2023-02-12T16:58:57.578Z,15.23
2023-02-12T17:01:33.873Z,13.07
2023-02-12T17:04:04.067Z,13.05
2023-02-12T17:06:32.573Z,13.27
2023-02-12T17:08:59.760Z,14.23
2023-02-12T17:11:28.946Z,15.48
2023-02-12T17:13:56.588Z,18.08
2023-02-12T17:16:32.141Z,14.25
2023-02-12T17:19:00.070Z,15.10
2023-02-12T17:21:41.913Z,16.25
2023-02-12T17:24:21.879Z,16.67
2023-02-12T17:26:50.548Z,16.55
2023-02-12T17:29:18.360Z,18.33
2023-02-12T17:31:45.081Z,16.45
2023-02-12T17:34:12.037Z,16.20
2023-02-12T17:36:38.756Z,14.30
2023-02-12T17:39:07.774Z,12.25
2023-02-12T17:41:34.921Z,14.05
2023-02-12T17:44:01.741Z,14.82
2023-02-12T17:46:29.725Z,15.07
2023-02-12T17:48:57.447Z,12.00
2023-02-12T17:51:25.039Z,13.52
2023-02-12T17:53:51.985Z,15.55
2023-02-12T17:56:21.182Z,13.95
2023-02-12T17:58:48.970Z,14.52
2023-02-12T18:01:19.660Z,15.80
2023-02-12T18:03:46.308Z,17.48
2023-02-12T18:06:16.188Z,19.25
2023-02-12T18:08:43.334Z,16.58
2023-02-12T18:11:11.380Z,16.35
2023-02-12T18:13:38.395Z,15.90
2023-02-12T18:16:10.412Z,16.30
2023-02-12T18:18:40.007Z,14.93
2023-02-12T18:21:11.515Z,16.23
2023-02-12T18:23:38.685Z,15.20
2023-02-12T18:26:07.983Z,20.98
2023-02-12T18:28:35.452Z,15.05
2023-02-12T18:31:02.753Z,17.05
2023-02-12T18:33:29.417Z,15.20
2023-02-12T18:36:03.407Z,16.23
2023-02-12T18:38:30.716Z,18.05
2023-02-12T18:40:59.613Z,17.95
2023-02-12T18:43:26.942Z,17.85
2023-02-12T18:45:55.207Z,18.40
2023-02-12T18:48:22.174Z,19.67
2023-02-12T18:50:51.531Z,17.90
2023-02-12T18:53:18.263Z,18.90
2023-02-12T18:55:44.900Z,26.08
2023-02-12T18:58:11.510Z,22.30
2023-02-12T19:00:38.115Z,18.88
2023-02-12T19:03:04.849Z,20.73
2023-02-12T19:05:31.563Z,23.73
2023-02-12T19:07:58.267Z,33.67
2023-02-12T19:10:24.925Z,38.65
2023-02-12T19:12:51.607Z,27.25
2023-02-12T19:15:18.543Z,21.27
2023-02-12T19:17:45.216Z,20.42
2023-02-12T19:20:13.404Z,18.63
2023-02-12T19:22:41.038Z,17.58
2023-02-12T19:25:07.953Z,18.10
2023-02-12T19:27:34.680Z,14.57
2023-02-12T19:30:02.068Z,18.05
2023-02-12T19:32:28.672Z,17.13
2023-02-12T19:34:55.231Z,18.08
2023-02-12T19:37:22.085Z,18.55
2023-02-12T19:39:48.685Z,16.48
2023-02-12T19:42:17.116Z,18.48
2023-02-12T19:44:44.443Z,17.23
2023-02-12T19:47:11.073Z,20.48
2023-02-12T19:49:38.086Z,19.00
2023-02-12T19:52:05.162Z,15.35
2023-02-12T19:54:31.791Z,18.95
2023-02-12T19:56:58.410Z,18.75
2023-02-12T19:59:26.754Z,21.88
2023-02-12T20:01:53.943Z,22.67
2023-02-12T20:04:22.161Z,16.50
2023-02-12T20:06:50.820Z,21.95
2023-02-12T20:09:19.367Z,18.23
2023-02-12T20:11:46.299Z,18.10
2023-02-12T20:14:14.390Z,19.65
2023-02-12T20:16:43.683Z,20.58
2023-02-12T20:19:14.922Z,22.35
2023-02-12T20:21:42.798Z,19.90
2023-02-12T20:24:09.479Z,19.40
2023-02-12T20:26:36.776Z,22.30
2023-02-12T20:29:05.231Z,21.55
2023-02-12T20:31:34.794Z,22.42
2023-02-12T20:34:07.712Z,23.85
2023-02-12T20:36:36.754Z,22.48
2023-02-12T20:39:05.198Z,23.52
2023-02-12T20:41:31.859Z,22.35
2023-02-12T20:44:00.525Z,23.42
2023-02-12T20:46:27.667Z,22.30
2023-02-12T20:48:54.969Z,21.95
2023-02-12T20:51:24.882Z,22.95
2023-02-12T20:53:52.362Z,22.58
2023-02-12T20:56:25.210Z,21.98
2023-02-12T20:58:52.544Z,22.15
2023-02-12T21:01:25.626Z,23.05
2023-02-12T21:03:54.646Z,22.77
2023-02-12T21:06:22.783Z,22.05
2023-02-12T21:08:51.068Z,19.48
2023-02-12T21:11:22.996Z,17.92
2023-02-12T21:13:58.774Z,18.33
2023-02-12T21:16:35.098Z,18.65
2023-02-12T21:19:01.823Z,18.63
2023-02-12T21:21:30.703Z,17.90
2023-02-12T21:23:58.561Z,18.02
2023-02-12T21:26:27.227Z,23.17
2023-02-12T21:28:56.275Z,21.00
2023-02-12T21:31:27.385Z,18.55
2023-02-12T21:33:55.421Z,18.08
2023-02-12T21:36:24.737Z,18.27
2023-02-12T21:38:52.458Z,19.58
2023-02-12T21:41:22.883Z,16.83
2023-02-12T21:43:55.974Z,15.35
2023-02-12T21:46:23.618Z,15.73
2023-02-12T21:48:51.117Z,16.67
2023-02-12T21:51:26.111Z,15.70
2023-02-12T21:53:55.691Z,15.45
2023-02-12T21:56:23.297Z,16.98
2023-02-12T21:58:51.778Z,17.90
2023-02-12T22:01:22.798Z,20.80
2023-02-12T22:03:50.073Z,17.75
2023-02-12T22:06:19.043Z,18.13
2023-02-12T22:08:46.579Z,17.65
2023-02-12T22:11:13.945Z,16.92
2023-02-12T22:13:40.960Z,21.35
2023-02-12T22:16:22.886Z,16.88
2023-02-12T22:18:52.805Z,14.80
2023-02-12T22:21:21.037Z,16.15
2023-02-12T22:23:47.983Z,16.48
2023-02-12T22:26:26.526Z,18.23
2023-02-12T22:28:56.512Z,17.30
2023-02-12T22:31:29.871Z,18.02
2023-02-12T22:33:58.888Z,20.35
2023-02-12T22:36:26.383Z,21.75
2023-02-12T22:38:54.945Z,18.27
2023-02-12T22:41:21.900Z,14.85
2023-02-12T22:43:49.304Z,14.85
2023-02-12T22:46:16.756Z,17.05
2023-02-12T22:48:44.143Z,15.25
2023-02-12T22:51:22.228Z,15.40
2023-02-12T22:53:49.013Z,15.82
2023-02-12T22:56:16.278Z,15.98
2023-02-12T22:58:43.360Z,16.40
2023-02-12T23:01:13.018Z,20.90
2023-02-12T23:03:40.123Z,18.17
2023-02-12T23:06:10.785Z,16.25
2023-02-12T23:08:37.437Z,16.75
2023-02-12T23:11:06.953Z,15.18
2023-02-12T23:13:34.142Z,14.07
2023-02-12T23:16:01.044Z,14.15
2023-02-12T23:18:27.748Z,14.52
2023-02-12T23:20:54.392Z,16.83
2023-02-12T23:23:21.769Z,15.43
2023-02-12T23:25:49.027Z,14.55
2023-02-12T23:28:16.098Z,15.18
2023-02-12T23:30:43.231Z,13.50
2023-02-12T23:33:09.996Z,12.75
2023-02-12T23:35:36.677Z,12.07
2023-02-12T23:38:04.319Z,9.75
2023-02-12T23:40:32.470Z,9.52
2023-02-12T23:42:59.764Z,6.93
2023-02-12T23:45:27.023Z,8.20
2023-02-12T23:47:53.971Z,8.10
2023-02-12T23:50:22.400Z,6.45
2023-02-12T23:52:49.091Z,8.15
2023-02-12T23:55:16.581Z,7.47
2023-02-12T23:57:43.160Z,5.70
